Time;durP1;ratioP1;P1;durP2;ratioP2;P2;SDS_P1;SDS_P2;PMS_P1;PMS_P2;Temp;Humidity;BMP_temperature;BMP_pressure;BME280_temperature;BME280_humidity;BME280_pressure;Samples;Min_cycle;Max_cycle;Signal;HPM_P1;HPM_P2
2023/10/21 00:00:42;;;;;;;51.10;27.20;;;;;;;12.18;100.00;97925.59;110501;1269;22767;-81
2023/10/21 00:03:32;;;;;;;53.80;26.10;;;;;;;12.15;100.00;97935.67;110526;1275;22194;-80
2023/10/21 00:06:03;;;;;;;62.10;28.00;;;;;;;12.12;100.00;97942.75;110496;1275;22195;-81
2023/10/21 00:08:34;;;;;;;55.30;28.20;;;;;;;12.10;100.00;97936.06;110548;1275;22337;-81
2023/10/21 00:11:08;;;;;;;53.40;25.30;;;;;;;12.08;100.00;97940.77;110548;1275;22353;-80
2023/10/21 00:13:39;;;;;;;48.70;25.90;;;;;;;12.08;100.00;97956.70;110522;1275;22151;-80
2023/10/21 00:16:11;;;;;;;52.60;26.30;;;;;;;12.07;100.00;97960.64;110554;1275;22180;-80
2023/10/21 00:18:41;;;;;;;47.70;24.70;;;;;;;12.04;100.00;97957.86;110552;1271;22374;-80
2023/10/21 00:21:12;;;;;;;51.50;25.60;;;;;;;12.01;100.00;97949.55;110547;1275;22982;-80
2023/10/21 00:23:43;;;;;;;59.40;27.40;;;;;;;11.99;100.00;97930.32;110546;1275;22332;-80
2023/10/21 00:26:13;;;;;;;52.70;25.60;;;;;;;11.99;100.00;97929.86;110537;1272;22155;-80
2023/10/21 00:28:44;;;;;;;56.00;26.90;;;;;;;11.98;100.00;97929.23;110549;1263;22270;-80
2023/10/21 00:31:15;;;;;;;53.30;26.40;;;;;;;11.96;100.00;97920.83;110521;1275;22197;-80
2023/10/21 00:33:45;;;;;;;55.00;28.70;;;;;;;11.95;100.00;97915.92;110389;1271;23064;-80
2023/10/21 00:36:16;;;;;;;55.50;28.70;;;;;;;11.93;100.00;97919.27;110514;1275;22136;-79
2023/10/21 00:38:47;;;;;;;56.20;26.60;;;;;;;11.95;100.00;97927.07;110519;1269;22137;-80
2023/10/21 00:41:19;;;;;;;52.40;25.40;;;;;;;11.96;100.00;97926.98;110559;1275;22395;-80
2023/10/21 00:43:50;;;;;;;49.80;22.60;;;;;;;11.94;100.00;97928.74;110570;1275;22222;-80
2023/10/21 00:46:22;;;;;;;44.80;23.20;;;;;;;11.92;100.00;97931.48;110497;1275;22199;-80
2023/10/21 00:48:53;;;;;;;56.50;27.40;;;;;;;11.89;100.00;97927.30;110528;1275;22362;-79
2023/10/21 00:51:25;;;;;;;51.40;24.80;;;;;;;11.84;100.00;97932.75;110534;1275;23027;-80
2023/10/21 00:53:57;;;;;;;51.50;25.50;;;;;;;11.83;100.00;97944.48;110531;1275;22208;-79
2023/10/21 00:56:28;;;;;;;56.50;27.20;;;;;;;11.85;100.00;97952.05;110439;1275;22421;-79
2023/10/21 00:58:59;;;;;;;57.80;25.90;;;;;;;11.86;100.00;97958.88;110487;1275;22219;-79
2023/10/21 01:01:29;;;;;;;59.40;26.10;;;;;;;11.85;100.00;97969.39;110456;1262;22126;-79
2023/10/21 01:04:00;;;;;;;59.80;26.80;;;;;;;11.84;100.00;97976.36;110447;1275;22271;-79
2023/10/21 01:06:31;;;;;;;62.90;27.80;;;;;;;11.81;100.00;97983.51;110501;1275;22800;-79
2023/10/21 01:09:02;;;;;;;66.30;27.20;;;;;;;11.80;100.00;97995.20;110446;1272;22229;-79
2023/10/21 01:11:33;;;;;;;59.10;27.40;;;;;;;11.80;100.00;98001.91;110473;1275;22197;-79
2023/10/21 01:14:04;;;;;;;61.50;27.00;;;;;;;11.82;100.00;97991.66;110486;1275;22906;-79
2023/10/21 01:16:36;;;;;;;55.50;25.20;;;;;;;11.83;100.00;97988.35;110479;1275;22175;-79
2023/10/21 01:19:08;;;;;;;56.50;28.50;;;;;;;11.81;100.00;97994.17;110530;1275;22299;-80
2023/10/21 01:21:39;;;;;;;51.50;26.40;;;;;;;11.81;100.00;98016.98;110522;1275;22368;-80
2023/10/21 01:24:10;;;;;;;47.50;22.60;;;;;;;11.80;100.00;98028.19;110531;1275;22267;-79
2023/10/21 01:26:41;;;;;;;46.10;22.60;;;;;;;11.79;100.00;98029.19;110487;1275;23161;-79
2023/10/21 01:29:12;;;;;;;50.30;24.30;;;;;;;11.78;100.00;98034.02;110496;1275;22182;-79
2023/10/21 01:31:43;;;;;;;49.30;21.60;;;;;;;11.77;100.00;98039.99;110498;1275;22212;-79
2023/10/21 01:34:15;;;;;;;44.60;20.40;;;;;;;11.73;100.00;98037.89;110268;1275;197707;-79
2023/10/21 01:36:47;;;;;;;39.50;19.90;;;;;;;11.70;100.00;98039.64;110446;1275;22151;-79
2023/10/21 01:39:18;;;;;;;41.00;19.50;;;;;;;11.67;100.00;98037.56;110682;1275;22155;-79
2023/10/21 01:41:49;;;;;;;47.60;21.80;;;;;;;11.66;100.00;98038.54;110597;1275;22226;-79
2023/10/21 01:44:20;;;;;;;44.30;22.20;;;;;;;11.66;100.00;98038.55;110609;1275;22158;-79
2023/10/21 01:46:51;;;;;;;48.90;22.20;;;;;;;11.67;100.00;98039.23;110484;1272;22223;-79
2023/10/21 01:49:21;;;;;;;52.50;23.20;;;;;;;11.68;100.00;98039.89;110477;1275;22173;-79
2023/10/21 01:51:52;;;;;;;50.10;24.30;;;;;;;11.68;100.00;98044.55;110457;1275;22196;-79
2023/10/21 01:54:23;;;;;;;56.10;23.60;;;;;;;11.67;100.00;98047.33;110461;1275;22901;-79
2023/10/21 01:56:54;;;;;;;47.00;22.40;;;;;;;11.67;100.00;98047.17;110447;1275;22225;-79
2023/10/21 01:59:24;;;;;;;57.40;25.30;;;;;;;11.66;100.00;98051.79;110483;1275;22212;-79
2023/10/21 02:01:55;;;;;;;61.90;26.10;;;;;;;11.66;100.00;98059.02;110455;1275;22138;-79
2023/10/21 02:04:26;;;;;;;59.50;25.00;;;;;;;11.68;100.00;98059.08;110408;1275;23017;-79
2023/10/21 02:06:56;;;;;;;65.60;25.50;;;;;;;11.71;100.00;98069.40;110438;1275;22260;-79
2023/10/21 02:09:27;;;;;;;60.00;24.00;;;;;;;11.71;100.00;98076.70;110450;1275;22155;-79
2023/10/21 02:11:58;;;;;;;66.10;25.70;;;;;;;11.70;100.00;98075.05;110414;1275;22362;-79
2023/10/21 02:14:29;;;;;;;59.80;24.80;;;;;;;11.72;100.00;98073.89;110486;1275;22157;-79
2023/10/21 02:17:00;;;;;;;59.40;25.10;;;;;;;11.76;100.00;98079.01;110486;1275;22319;-79
2023/10/21 02:19:30;;;;;;;60.60;24.60;;;;;;;11.79;100.00;98088.09;110504;1275;22335;-79
2023/10/21 02:22:01;;;;;;;54.00;24.00;;;;;;;11.80;100.00;98094.79;110535;1275;23161;-79
2023/10/21 02:24:36;;;;;;;54.90;22.80;;;;;;;11.78;100.00;98094.05;110497;1275;22208;-79
2023/10/21 02:27:07;;;;;;;60.20;24.00;;;;;;;11.71;100.00;98098.61;110500;1275;22998;-80
2023/10/21 02:29:37;;;;;;;62.30;23.90;;;;;;;11.65;100.00;98105.67;110455;1275;22302;-80
2023/10/21 02:32:08;;;;;;;57.60;24.00;;;;;;;11.63;100.00;98109.02;110477;1275;22240;-81
2023/10/21 02:34:39;;;;;;;53.90;23.30;;;;;;;11.60;100.00;98108.91;110513;1275;22384;-80
2023/10/21 02:37:11;;;;;;;53.30;24.10;;;;;;;11.54;100.00;98101.15;110496;1266;22168;-80
2023/10/21 02:39:42;;;;;;;55.40;23.80;;;;;;;11.51;100.00;98104.58;110527;1275;22318;-80
2023/10/21 02:42:13;;;;;;;53.20;23.20;;;;;;;11.49;100.00;98101.77;110497;1275;22149;-80
2023/10/21 02:44:44;;;;;;;56.60;22.80;;;;;;;11.46;100.00;98106.69;110406;1275;22303;-80
2023/10/21 02:47:16;;;;;;;56.00;25.30;;;;;;;11.42;100.00;98112.77;110441;1275;22329;-80
2023/10/21 02:49:46;;;;;;;51.90;23.30;;;;;;;11.39;100.00;98111.98;110517;1275;22236;-80
2023/10/21 02:52:17;;;;;;;54.30;24.80;;;;;;;11.38;100.00;98114.95;110495;1275;22443;-80
2023/10/21 02:54:48;;;;;;;51.90;22.70;;;;;;;11.34;100.00;98117.54;110519;1275;22263;-80
2023/10/21 02:57:19;;;;;;;48.40;21.10;;;;;;;11.28;100.00;98109.96;110483;1275;22883;-80
2023/10/21 02:59:50;;;;;;;48.40;22.10;;;;;;;11.23;100.00;98108.13;110474;1275;22984;-80
2023/10/21 03:02:20;;;;;;;45.20;18.20;;;;;;;11.20;100.00;98105.73;110514;1275;22162;-80
2023/10/21 03:04:51;;;;;;;46.40;19.20;;;;;;;11.16;100.00;98100.64;110477;1275;22174;-80
2023/10/21 03:07:22;;;;;;;44.70;18.10;;;;;;;11.14;100.00;98102.91;110463;1275;22176;-81
2023/10/21 03:09:53;;;;;;;41.90;17.80;;;;;;;11.11;100.00;98101.98;110457;1276;22128;-81
2023/10/21 03:12:23;;;;;;;43.50;19.70;;;;;;;11.11;100.00;98105.44;110433;1268;22338;-81
2023/10/21 03:14:54;;;;;;;44.30;21.00;;;;;;;11.11;100.00;98113.52;110448;1275;22193;-80
2023/10/21 03:17:25;;;;;;;47.60;21.40;;;;;;;11.12;100.00;98120.77;110474;1275;22157;-81
2023/10/21 03:19:56;;;;;;;38.40;20.90;;;;;;;11.15;100.00;98134.42;110504;1275;22207;-80
2023/10/21 03:22:27;;;;;;;40.00;20.40;;;;;;;11.19;100.00;98133.52;110486;1275;22157;-80
2023/10/21 03:24:58;;;;;;;46.10;19.40;;;;;;;11.22;100.00;98129.27;110535;1275;23061;-80
2023/10/21 03:27:29;;;;;;;43.30;20.90;;;;;;;11.22;100.00;98126.92;110521;1275;22209;-79
2023/10/21 03:30:00;;;;;;;41.60;21.00;;;;;;;11.24;100.00;98125.17;110518;1275;22949;-79
2023/10/21 03:32:32;;;;;;;40.00;19.40;;;;;;;11.29;100.00;98119.65;110506;1267;22198;-79
2023/10/21 03:35:04;;;;;;;36.20;17.00;;;;;;;11.32;100.00;98110.05;110525;1275;23319;-79
2023/10/21 03:37:35;;;;;;;42.90;17.70;;;;;;;11.33;100.00;98108.40;110479;1275;22236;-79
2023/10/21 03:40:10;;;;;;;34.50;15.60;;;;;;;11.32;100.00;98112.30;110488;1275;22190;-79
2023/10/21 03:42:40;;;;;;;35.10;15.50;;;;;;;11.28;100.00;98113.83;110496;1275;22316;-79
2023/10/21 03:45:12;;;;;;;36.20;17.70;;;;;;;11.24;100.00;98130.41;110506;1275;22158;-78
2023/10/21 03:47:43;;;;;;;39.20;16.30;;;;;;;11.21;100.00;98142.53;110474;1275;22355;-79
2023/10/21 03:50:14;;;;;;;35.50;17.00;;;;;;;11.18;100.00;98148.89;110430;1275;22140;-78
2023/10/21 03:52:44;;;;;;;35.60;15.60;;;;;;;11.20;100.00;98147.32;110430;1275;22384;-78
2023/10/21 03:55:15;;;;;;;42.00;17.80;;;;;;;11.24;100.00;98148.59;110425;1275;22197;-79
2023/10/21 03:57:48;;;;;;;38.20;16.00;;;;;;;11.27;100.00;98147.06;110451;1275;22463;-79
2023/10/21 04:00:20;;;;;;;37.70;16.70;;;;;;;11.30;100.00;98145.59;110419;1275;22222;-79
2023/10/21 04:02:50;;;;;;;36.60;15.10;;;;;;;11.33;100.00;98144.71;110459;1275;22165;-78
2023/10/21 04:05:21;;;;;;;39.10;17.70;;;;;;;11.36;100.00;98147.86;110433;1275;22854;-78
2023/10/21 04:07:55;;;;;;;34.20;16.10;;;;;;;11.40;100.00;98154.34;110414;1275;22176;-78
2023/10/21 04:10:25;;;;;;;37.90;16.80;;;;;;;11.41;100.00;98161.34;110411;1275;22194;-78
2023/10/21 04:12:56;;;;;;;37.50;15.90;;;;;;;11.42;100.00;98164.42;110463;1265;22366;-79
2023/10/21 04:15:27;;;;;;;34.30;16.00;;;;;;;11.43;100.00;98158.11;110453;1275;22267;-78
2023/10/21 04:17:58;;;;;;;35.90;15.50;;;;;;;11.43;100.00;98144.23;110407;1275;22231;-78
2023/10/21 04:20:28;;;;;;;36.00;16.30;;;;;;;11.44;100.00;98133.96;110426;1275;22178;-78
2023/10/21 04:23:01;;;;;;;48.10;22.40;;;;;;;11.44;100.00;98131.83;110412;1275;22139;-78
2023/10/21 04:25:32;;;;;;;50.90;21.90;;;;;;;11.43;100.00;98157.20;110425;1275;22290;-78
2023/10/21 04:28:02;;;;;;;48.70;22.10;;;;;;;11.40;100.00;98172.79;110417;1272;22353;-78
2023/10/21 04:30:33;;;;;;;40.60;18.70;;;;;;;11.38;100.00;98171.69;110419;1275;23332;-78
2023/10/21 04:33:04;;;;;;;47.90;19.40;;;;;;;11.38;100.00;98173.37;110444;1265;22297;-78
2023/10/21 04:35:35;;;;;;;41.50;18.00;;;;;;;11.38;100.00;98188.30;110442;1275;22324;-78
2023/10/21 04:38:09;;;;;;;40.40;18.10;;;;;;;11.39;100.00;98200.94;110469;1275;22889;-78
2023/10/21 04:40:40;;;;;;;42.20;18.00;;;;;;;11.39;100.00;98206.13;110402;1275;23074;-78
2023/10/21 04:43:11;;;;;;;37.10;16.50;;;;;;;11.40;100.00;98209.90;110393;1275;23109;-78
2023/10/21 04:45:42;;;;;;;34.10;15.80;;;;;;;11.42;100.00;98214.55;110464;1275;22259;-78
2023/10/21 04:48:15;;;;;;;34.50;15.90;;;;;;;11.41;100.00;98209.91;110343;1270;22566;-78
2023/10/21 04:50:47;;;;;;;37.80;18.30;;;;;;;11.35;100.00;98208.36;110403;1273;22236;-78
2023/10/21 04:53:18;;;;;;;34.40;16.50;;;;;;;11.35;100.00;98220.51;110437;1275;22165;-78
2023/10/21 04:55:49;;;;;;;38.50;17.60;;;;;;;11.34;100.00;98226.27;110418;1275;22282;-77
2023/10/21 04:58:20;;;;;;;37.80;17.30;;;;;;;11.36;100.00;98237.61;110420;1275;22279;-78
2023/10/21 05:00:51;;;;;;;37.60;17.00;;;;;;;11.36;100.00;98248.34;110422;1275;22972;-78
2023/10/21 05:03:22;;;;;;;39.60;16.20;;;;;;;11.37;100.00;98251.23;110394;1275;22171;-78
2023/10/21 05:05:52;;;;;;;36.10;16.90;;;;;;;11.38;100.00;98243.88;110476;1275;23120;-78
2023/10/21 05:08:23;;;;;;;37.80;15.50;;;;;;;11.38;100.00;98242.50;110444;1275;22205;-77
2023/10/21 05:10:55;;;;;;;33.00;15.40;;;;;;;11.31;100.00;98250.35;110438;1272;22218;-78
2023/10/21 05:13:25;;;;;;;38.50;17.30;;;;;;;11.22;100.00;98258.01;110393;1275;22288;-78
2023/10/21 05:15:56;;;;;;;34.60;16.10;;;;;;;11.20;100.00;98264.88;110448;1275;22147;-75
2023/10/21 05:18:27;;;;;;;37.40;18.00;;;;;;;11.20;100.00;98265.95;110429;1264;22188;-75
2023/10/21 05:20:57;;;;;;;34.30;16.40;;;;;;;11.19;100.00;98271.45;110424;1275;22209;-76
2023/10/21 05:23:28;;;;;;;34.20;16.00;;;;;;;11.19;100.00;98275.77;110414;1275;22191;-76
2023/10/21 05:25:59;;;;;;;35.50;16.20;;;;;;;11.20;100.00;98265.55;110315;1272;22991;-75
2023/10/21 05:28:31;;;;;;;36.80;17.50;;;;;;;11.21;100.00;98279.84;110469;1274;22173;-75
2023/10/21 05:31:03;;;;;;;31.70;15.20;;;;;;;11.21;100.00;98297.71;110411;1275;22267;-76
2023/10/21 05:33:34;;;;;;;37.10;16.50;;;;;;;11.23;100.00;98298.71;110518;1275;22233;-76
2023/10/21 05:36:05;;;;;;;34.60;14.50;;;;;;;11.25;100.00;98291.02;110419;1269;23001;-76
2023/10/21 05:38:36;;;;;;;31.70;14.00;;;;;;;11.27;100.00;98285.91;110382;1272;22298;-76
2023/10/21 05:41:06;;;;;;;35.60;15.10;;;;;;;11.27;100.00;98294.08;110363;1273;22281;-76
2023/10/21 05:43:37;;;;;;;39.10;17.70;;;;;;;11.26;100.00;98326.00;110404;1272;22466;-76
2023/10/21 05:46:08;;;;;;;38.40;16.90;;;;;;;11.20;100.00;98338.62;110385;1270;23211;-76
2023/10/21 05:48:39;;;;;;;38.60;17.50;;;;;;;11.17;100.00;98342.52;108992;1272;23186;-75
2023/10/21 05:51:09;;;;;;;37.20;16.10;;;;;;;11.18;100.00;98343.48;107404;1267;23761;-75
2023/10/21 05:53:40;;;;;;;35.80;15.80;;;;;;;11.21;100.00;98341.51;107490;1269;22559;-75
2023/10/21 05:56:12;;;;;;;39.30;17.30;;;;;;;11.23;100.00;98346.81;107550;1269;25249;-76
2023/10/21 05:58:43;;;;;;;38.90;17.60;;;;;;;11.25;100.00;98356.08;107594;1272;22654;-76
2023/10/21 06:01:15;;;;;;;44.70;19.10;;;;;;;11.26;100.00;98364.04;110464;1269;22257;-76
2023/10/21 06:03:46;;;;;;;37.00;17.80;;;;;;;11.27;100.00;98370.62;110401;1271;22156;-77
2023/10/21 06:06:17;;;;;;;35.90;16.80;;;;;;;11.28;100.00;98376.30;110490;1269;22359;-77
2023/10/21 06:08:48;;;;;;;44.10;18.10;;;;;;;11.30;100.00;98374.70;110470;1275;23138;-75
2023/10/21 06:11:19;;;;;;;45.60;19.40;;;;;;;11.30;100.00;98375.65;110408;1265;22425;-77
2023/10/21 06:13:50;;;;;;;43.10;18.50;;;;;;;11.31;100.00;98378.30;110342;1269;22257;-76
2023/10/21 06:16:21;;;;;;;47.60;21.20;;;;;;;11.32;100.00;98376.84;110280;1272;22357;-76
2023/10/21 06:18:51;;;;;;;42.30;19.00;;;;;;;11.33;100.00;98377.85;110377;1274;22198;-77
2023/10/21 06:21:22;;;;;;;45.30;19.50;;;;;;;11.35;100.00;98373.56;110383;1269;22447;-77
2023/10/21 06:23:53;;;;;;;46.30;18.80;;;;;;;11.35;100.00;98374.13;110368;1275;23192;-77
2023/10/21 06:26:24;;;;;;;46.30;21.40;;;;;;;11.36;100.00;98377.45;110339;1276;22157;-76
2023/10/21 06:28:55;;;;;;;40.80;18.60;;;;;;;11.37;100.00;98392.07;110401;1275;22208;-76
2023/10/21 06:31:26;;;;;;;41.80;18.30;;;;;;;11.36;100.00;98402.08;110325;1275;23265;-77
2023/10/21 06:33:57;;;;;;;39.40;17.00;;;;;;;11.36;100.00;98406.45;110369;1275;22226;-78
2023/10/21 06:36:27;;;;;;;42.40;18.60;;;;;;;11.37;100.00;98405.17;110348;1275;22389;-78
2023/10/21 06:38:59;;;;;;;54.10;23.20;;;;;;;11.37;100.00;98406.48;110349;1275;23520;-78
2023/10/21 06:41:30;;;;;;;43.70;20.80;;;;;;;11.37;100.00;98409.73;110385;1275;22212;-78
2023/10/21 06:44:01;;;;;;;47.40;21.70;;;;;;;11.38;100.00;98416.23;110427;1275;22262;-78
2023/10/21 06:46:34;;;;;;;45.00;21.10;;;;;;;11.40;100.00;98424.28;110430;1275;22192;-77
2023/10/21 06:49:05;;;;;;;42.30;19.90;;;;;;;11.41;100.00;98433.17;110369;1275;22212;-78
2023/10/21 06:51:37;;;;;;;40.20;18.50;;;;;;;11.42;100.00;98434.94;110335;1275;22283;-78
2023/10/21 06:54:08;;;;;;;43.50;19.60;;;;;;;11.43;100.00;98435.38;110328;1276;22313;-78
2023/10/21 06:56:38;;;;;;;38.80;18.30;;;;;;;11.46;100.00;98449.62;110357;1275;22182;-78
2023/10/21 06:59:09;;;;;;;42.50;18.90;;;;;;;11.46;100.00;98462.58;110424;1275;22410;-78
2023/10/21 07:01:40;;;;;;;37.80;18.30;;;;;;;11.45;100.00;98461.37;110330;1275;22679;-78
2023/10/21 07:04:11;;;;;;;45.90;22.70;;;;;;;11.46;100.00;98464.00;110415;1275;22195;-77
2023/10/21 07:06:42;;;;;;;53.30;25.00;;;;;;;11.45;100.00;98471.77;110371;1269;23110;-78
2023/10/21 07:09:12;;;;;;;55.40;27.00;;;;;;;11.44;100.00;98475.30;110401;1275;22174;-78
2023/10/21 07:11:43;;;;;;;54.20;28.00;;;;;;;11.46;100.00;98474.52;110387;1275;23296;-78
2023/10/21 07:14:14;;;;;;;59.30;30.40;;;;;;;11.49;100.00;98481.13;110379;1273;22189;-78
2023/10/21 07:16:45;;;;;;;60.00;30.20;;;;;;;11.51;100.00;98485.56;110419;1275;22305;-78
2023/10/21 07:19:16;;;;;;;61.40;30.80;;;;;;;11.52;100.00;98486.38;110412;1275;22192;-78
2023/10/21 07:21:47;;;;;;;54.10;27.50;;;;;;;11.54;100.00;98492.85;110408;1275;22149;-78
2023/10/21 07:24:18;;;;;;;54.90;29.40;;;;;;;11.57;100.00;98501.45;110407;1275;22193;-78
2023/10/21 07:26:49;;;;;;;39.50;19.20;;;;;;;11.58;100.00;98507.38;110395;1275;22281;-78
2023/10/21 07:29:19;;;;;;;39.00;18.10;;;;;;;11.59;100.00;98505.88;110418;1275;22238;-78
2023/10/21 07:31:51;;;;;;;42.40;18.30;;;;;;;11.60;100.00;98511.98;110417;1266;22195;-78
2023/10/21 07:34:22;;;;;;;45.20;20.50;;;;;;;11.59;100.00;98516.14;110402;1275;22154;-78
2023/10/21 07:36:52;;;;;;;41.10;19.20;;;;;;;11.60;100.00;98516.45;110438;1275;22846;-78
2023/10/21 07:39:23;;;;;;;39.10;18.70;;;;;;;11.61;100.00;98521.40;110411;1275;22152;-77
2023/10/21 07:41:54;;;;;;;37.30;17.50;;;;;;;11.63;100.00;98528.09;110403;1275;23062;-77
2023/10/21 07:44:28;;;;;;;42.40;19.40;;;;;;;11.64;100.00;98531.23;110398;1275;22248;-78
2023/10/21 07:46:59;;;;;;;39.10;19.40;;;;;;;11.68;100.00;98534.20;110408;1275;22696;-78
2023/10/21 07:49:29;;;;;;;45.30;21.80;;;;;;;11.73;100.00;98537.03;110418;1275;23385;-78
2023/10/21 07:52:00;;;;;;;46.60;22.20;;;;;;;11.79;100.00;98539.10;110401;1275;22164;-78
2023/10/21 07:54:31;;;;;;;45.10;21.50;;;;;;;11.85;100.00;98543.24;110438;1264;22559;-78
2023/10/21 07:57:02;;;;;;;44.60;21.60;;;;;;;11.92;100.00;98546.65;110378;1275;22975;-78
2023/10/21 07:59:32;;;;;;;40.60;21.20;;;;;;;12.02;100.00;98552.20;110409;1275;23132;-77
2023/10/21 08:02:03;;;;;;;43.00;21.40;;;;;;;12.11;100.00;98561.04;110422;1275;22892;-78
2023/10/21 08:04:35;;;;;;;40.80;21.80;;;;;;;12.17;100.00;98568.06;110384;1272;22774;-77
2023/10/21 08:07:06;;;;;;;42.10;21.20;;;;;;;12.24;100.00;98575.60;110405;1263;22302;-78
2023/10/21 08:09:38;;;;;;;40.90;21.90;;;;;;;12.31;100.00;98579.33;110410;1275;22176;-78
2023/10/21 08:12:09;;;;;;;46.00;22.60;;;;;;;12.38;100.00;98582.47;110407;1275;22217;-78
2023/10/21 08:14:40;;;;;;;47.10;25.10;;;;;;;12.45;100.00;98592.60;110400;1275;22331;-78
2023/10/21 08:17:11;;;;;;;41.60;20.80;;;;;;;12.49;100.00;98591.66;110442;1275;22130;-78
2023/10/21 08:19:42;;;;;;;41.80;21.70;;;;;;;12.55;100.00;98595.60;110366;1275;23176;-78
2023/10/21 08:22:12;;;;;;;39.50;21.80;;;;;;;12.62;100.00;98596.81;110387;1275;22804;-78
2023/10/21 08:24:43;;;;;;;43.30;22.50;;;;;;;12.69;100.00;98600.23;110394;1275;22379;-78
2023/10/21 08:27:14;;;;;;;46.00;22.60;;;;;;;12.76;100.00;98606.36;110407;1275;22297;-78
2023/10/21 08:29:45;;;;;;;44.40;21.30;;;;;;;12.81;100.00;98612.23;110396;1272;22312;-77
2023/10/21 08:32:16;;;;;;;44.60;22.60;;;;;;;12.87;100.00;98616.73;110420;1275;22199;-78
2023/10/21 08:34:46;;;;;;;41.50;21.80;;;;;;;12.91;100.00;98616.71;110407;1270;22536;-78
2023/10/21 08:37:17;;;;;;;43.00;22.70;;;;;;;12.96;100.00;98620.15;110426;1275;22183;-78
2023/10/21 08:39:48;;;;;;;41.70;22.70;;;;;;;13.01;100.00;98630.24;110413;1275;22155;-77
2023/10/21 08:42:19;;;;;;;41.60;22.30;;;;;;;13.06;100.00;98634.73;110413;1275;22176;-77
2023/10/21 08:44:51;;;;;;;41.90;21.70;;;;;;;13.11;100.00;98632.15;110405;1266;22197;-78
2023/10/21 08:47:23;;;;;;;46.20;23.10;;;;;;;13.18;100.00;98636.30;110370;1275;22735;-77
2023/10/21 08:49:54;;;;;;;46.50;22.80;;;;;;;13.24;100.00;98645.08;110417;1275;22305;-78
2023/10/21 08:52:27;;;;;;;45.50;22.50;;;;;;;13.31;100.00;98646.69;110423;1264;22610;-78
2023/10/21 08:54:58;;;;;;;42.80;21.10;;;;;;;13.37;100.00;98654.83;110414;1275;22338;-77
2023/10/21 08:57:30;;;;;;;50.10;23.60;;;;;;;13.43;100.00;98662.27;110408;1274;22177;-78
2023/10/21 09:00:00;;;;;;;44.30;23.00;;;;;;;13.49;100.00;98667.35;110374;1275;22202;-78
2023/10/21 09:02:31;;;;;;;44.20;21.70;;;;;;;13.55;100.00;98665.98;110434;1275;22191;-77
2023/10/21 09:05:09;;;;;;;44.30;23.30;;;;;;;13.61;100.00;98670.34;110417;1275;22979;-77
2023/10/21 09:07:47;;;;;;;42.20;22.50;;;;;;;13.69;100.00;98673.02;110409;1275;22271;-77
2023/10/21 09:10:21;;;;;;;46.10;21.00;;;;;;;13.76;100.00;98675.42;110399;1275;23067;-77
2023/10/21 09:12:51;;;;;;;44.00;23.10;;;;;;;13.84;100.00;98675.59;110451;1275;22437;-78
2023/10/21 09:15:35;;;;;;;41.00;21.60;;;;;;;13.91;100.00;98675.75;110429;1275;22246;-78
2023/10/21 09:18:13;;;;;;;41.60;22.90;;;;;;;13.98;100.00;98680.98;110381;1275;22214;-77
2023/10/21 09:20:50;;;;;;;47.80;24.50;;;;;;;14.05;100.00;98677.16;110419;1275;23011;-77
2023/10/21 09:23:21;;;;;;;45.60;22.20;;;;;;;14.13;100.00;98676.58;110414;1275;22144;-77
2023/10/21 09:25:54;;;;;;;49.60;24.90;;;;;;;14.19;100.00;98675.66;110501;1275;22330;-77
2023/10/21 09:28:26;;;;;;;42.90;22.90;;;;;;;14.26;100.00;98680.67;110573;1269;22186;-77
2023/10/21 09:31:02;;;;;;;50.40;24.90;;;;;;;14.37;100.00;98679.14;110503;1275;22203;-77
2023/10/21 09:33:52;;;;;;;43.40;23.30;;;;;;;14.45;100.00;98683.61;110410;1275;23166;-77
2023/10/21 09:36:23;;;;;;;47.90;23.70;;;;;;;14.51;100.00;98685.67;110378;1275;23080;-78
2023/10/21 09:38:54;;;;;;;43.70;23.10;;;;;;;14.54;100.00;98689.98;110391;1275;22973;-77
2023/10/21 09:41:25;;;;;;;42.80;21.60;;;;;;;14.58;100.00;98693.29;110412;1264;22179;-77
2023/10/21 09:43:57;;;;;;;48.40;24.20;;;;;;;14.62;100.00;98695.28;110411;1275;22894;-77
2023/10/21 09:46:30;;;;;;;46.00;23.60;;;;;;;14.71;100.00;98698.36;110392;1275;22186;-76
2023/10/21 09:49:04;;;;;;;45.00;22.10;;;;;;;14.79;100.00;98700.02;110424;1261;22159;-77
2023/10/21 09:51:41;;;;;;;42.90;22.80;;;;;;;14.87;100.00;98694.27;110398;1275;22205;-77
2023/10/21 09:54:16;;;;;;;42.60;23.00;;;;;;;14.92;100.00;98693.44;110397;1275;22200;-77
2023/10/21 09:56:47;;;;;;;52.70;25.30;;;;;;;14.95;100.00;98695.42;110405;1275;23264;-76
2023/10/21 09:59:19;;;;;;;46.30;22.80;;;;;;;14.98;100.00;98700.33;110399;1264;22576;-77
2023/10/21 10:01:51;;;;;;;40.60;21.40;;;;;;;15.02;100.00;98701.68;110312;1268;23027;-76
2023/10/21 10:04:26;;;;;;;41.50;23.70;;;;;;;15.06;100.00;98705.83;110416;1260;22188;-76
2023/10/21 10:06:59;;;;;;;48.00;24.40;;;;;;;15.12;100.00;98703.50;110383;1270;22209;-76
2023/10/21 10:09:31;;;;;;;47.50;23.70;;;;;;;15.17;100.00;98704.39;110366;1275;23365;-76
2023/10/21 10:12:07;;;;;;;48.90;24.60;;;;;;;15.25;100.00;98710.48;110348;1270;23698;-76
2023/10/21 10:14:39;;;;;;;46.40;25.10;;;;;;;15.31;100.00;98716.77;110346;1269;22406;-74
2023/10/21 10:17:10;;;;;;;51.40;24.40;;;;;;;15.40;100.00;98720.03;110362;1275;22208;-75
2023/10/21 10:19:42;;;;;;;45.10;24.40;;;;;;;15.46;100.00;98721.81;110428;1275;22255;-76
2023/10/21 10:22:29;;;;;;;39.60;20.10;;;;;;;15.53;100.00;98720.81;110314;1271;22475;-76
2023/10/21 10:25:10;;;;;;;33.50;16.70;;;;;;;15.63;100.00;98724.35;110402;1275;22208;-75
2023/10/21 10:27:42;;;;;;;33.10;17.10;;;;;;;15.74;100.00;98726.88;110382;1275;22221;-76
2023/10/21 10:30:21;;;;;;;35.00;17.70;;;;;;;15.84;100.00;98728.00;110383;1275;22313;-75
2023/10/21 10:32:53;;;;;;;35.20;19.30;;;;;;;15.94;100.00;98723.17;110368;1275;22231;-75
2023/10/21 10:35:34;;;;;;;38.10;18.80;;;;;;;16.00;100.00;98721.21;110350;1261;23086;-75
2023/10/21 10:38:17;;;;;;;33.30;17.80;;;;;;;16.08;100.00;98719.05;110368;1275;22204;-76
2023/10/21 10:40:49;;;;;;;33.90;17.20;;;;;;;16.14;100.00;98727.05;110361;1275;22181;-76
2023/10/21 10:43:20;;;;;;;32.80;15.60;;;;;;;16.20;100.00;98735.61;110344;1275;22918;-75
2023/10/21 10:45:51;;;;;;;29.20;14.70;;;;;;;16.31;100.00;98735.15;110283;1269;22343;-77
2023/10/21 10:48:25;;;;;;;32.70;15.90;;;;;;;16.38;100.00;98739.10;110298;1260;22398;-77
2023/10/21 10:51:01;;;;;;;30.80;16.10;;;;;;;16.45;100.00;98746.98;110289;1268;22319;-77
2023/10/21 10:53:33;;;;;;;28.70;13.70;;;;;;;16.52;100.00;98749.67;110261;1272;23471;-75
2023/10/21 10:56:07;;;;;;;30.70;16.50;;;;;;;16.58;100.00;98759.29;110287;1269;22353;-76
2023/10/21 10:58:38;;;;;;;29.90;16.20;;;;;;;16.60;100.00;98757.45;110292;1271;22232;-75
2023/10/21 11:01:19;;;;;;;32.60;17.20;;;;;;;16.61;100.00;98764.04;110253;1270;22281;-76
2023/10/21 11:03:58;;;;;;;30.00;15.80;;;;;;;16.65;100.00;98767.44;110303;1275;22245;-76
2023/10/21 11:06:34;;;;;;;31.50;16.60;;;;;;;16.71;100.00;98771.41;110269;1271;22379;-75
2023/10/21 11:09:07;;;;;;;28.50;14.40;;;;;;;16.74;100.00;98775.52;110303;1275;22354;-77
2023/10/21 11:11:48;;;;;;;30.90;14.50;;;;;;;16.77;100.00;98777.21;110250;1275;22250;-76
2023/10/21 11:14:19;;;;;;;30.70;14.60;;;;;;;16.82;100.00;98778.70;110291;1270;22255;-75
2023/10/21 11:16:50;;;;;;;34.20;15.00;;;;;;;16.90;100.00;98776.63;110275;1268;22181;-75
2023/10/21 11:19:21;;;;;;;29.30;14.00;;;;;;;16.97;100.00;98784.19;110282;1270;22347;-75
2023/10/21 11:21:52;;;;;;;25.70;11.20;;;;;;;17.04;100.00;98781.46;110168;1275;22393;-76